Time;durP1;ratioP1;P1;durP2;ratioP2;P2;SDS_P1;SDS_P2;PMS_P1;PMS_P2;Temp;Humidity;BMP_temperature;BMP_pressure;BME280_temperature;BME280_humidity;BME280_pressure;Samples;Min_cycle;Max_cycle;Signal;HPM_P1;HPM_P2
2022/04/22 00:01:45;;;;;;;10.40;7.70;;;;;;;;;;5070613;28;20036;-31
2022/04/22 00:04:11;;;;;;;8.93;7.68;;;;;;;;;;5068422;28;20593;-28
2022/04/22 00:06:37;;;;;;;14.10;8.32;;;;;;;;;;5071094;28;20063;-30
2022/04/22 00:09:03;;;;;;;10.07;7.53;;;;;;;;;;5071005;28;20037;-28
2022/04/22 00:11:29;;;;;;;12.73;8.20;;;;;;;;;;5070038;28;20036;-29
2022/04/22 00:13:56;;;;;;;11.63;7.95;;;;;;;;;;5071283;28;20128;-29
2022/04/22 00:16:22;;;;;;;9.60;7.85;;;;;;;;;;5072117;28;20039;-32
2022/04/22 00:18:48;;;;;;;9.77;7.82;;;;;;;;;;5070714;28;20041;-28
2022/04/22 00:21:14;;;;;;;11.95;8.20;;;;;;;;;;5071555;28;20140;-29
2022/04/22 00:23:40;;;;;;;13.82;8.80;;;;;;;;;;5053293;28;20048;-28
2022/04/22 00:26:06;;;;;;;11.75;8.35;;;;;;;;;;5071740;28;20063;-30
2022/04/22 00:28:33;;;;;;;14.18;9.13;;;;;;;;;;5071868;28;20081;-28
2022/04/22 00:30:59;;;;;;;11.05;8.68;;;;;;;;;;5072152;28;20036;-25
2022/04/22 00:33:25;;;;;;;13.13;8.57;;;;;;;;;;5073391;28;20080;-25
2022/04/22 00:35:51;;;;;;;11.38;8.43;;;;;;;;;;5073103;28;20044;-26
2022/04/22 00:38:17;;;;;;;14.18;8.40;;;;;;;;;;5072126;28;20433;-26
2022/04/22 00:40:43;;;;;;;12.20;8.82;;;;;;;;;;5072067;28;20049;-26
2022/04/22 00:43:15;;;;;;;12.00;9.30;;;;;;;;;;5071756;28;20041;-25
2022/04/22 00:45:41;;;;;;;10.85;8.07;;;;;;;;;;5071596;28;20037;-25
2022/04/22 00:48:08;;;;;;;11.98;9.13;;;;;;;;;;5071221;28;20037;-26
2022/04/22 00:50:34;;;;;;;13.82;9.02;;;;;;;;;;5071441;28;20041;-25
2022/04/22 00:53:00;;;;;;;10.82;8.48;;;;;;;;;;5071512;28;20504;-26
2022/04/22 00:55:28;;;;;;;12.07;8.52;;;;;;;;;;5071423;28;20123;-26
2022/04/22 00:57:54;;;;;;;14.13;8.85;;;;;;;;;;5071270;28;20490;-24
2022/04/22 01:00:20;;;;;;;14.15;8.85;;;;;;;;;;5071518;28;20105;-26
2022/04/22 01:02:46;;;;;;;11.88;8.63;;;;;;;;;;5071399;28;20094;-24
2022/04/22 01:10:43;;;;;;;13.35;8.85;;;;;;;;;;5071302;28;20059;-26
2022/04/22 01:13:09;;;;;;;13.23;9.35;;;;;;;;;;5071844;28;20360;-30
2022/04/22 01:15:36;;;;;;;11.38;9.25;;;;;;;;;;5072123;28;20098;-30
2022/04/22 01:18:02;;;;;;;14.82;10.27;;;;;;;;;;5071389;28;20063;-28
2022/04/22 01:20:28;;;;;;;14.82;10.02;;;;;;;;;;5071015;28;20041;-30
2022/04/22 01:22:54;;;;;;;15.60;9.77;;;;;;;;;;5070327;28;20044;-29
2022/04/22 01:25:20;;;;;;;13.85;9.77;;;;;;;;;;5070746;28;20063;-30
2022/04/22 01:27:51;;;;;;;14.13;10.60;;;;;;;;;;5070619;28;20043;-30
2022/04/22 01:30:20;;;;;;;16.73;10.85;;;;;;;;;;5069566;28;20037;-29
2022/04/22 01:32:50;;;;;;;16.63;11.30;;;;;;;;;;5069913;28;20040;-29
2022/04/22 01:35:16;;;;;;;15.00;11.18;;;;;;;;;;5069984;28;20166;-30
2022/04/22 01:37:43;;;;;;;16.42;11.85;;;;;;;;;;5070730;28;20045;-30
2022/04/22 01:40:10;;;;;;;17.17;11.73;;;;;;;;;;5069778;28;20052;-30
2022/04/22 01:42:36;;;;;;;18.35;12.07;;;;;;;;;;5073310;28;20483;-30
2022/04/22 01:45:03;;;;;;;19.08;12.68;;;;;;;;;;5074289;28;20490;-29
2022/04/22 01:47:29;;;;;;;16.98;12.48;;;;;;;;;;5074505;28;20040;-29
2022/04/22 01:49:56;;;;;;;22.52;13.70;;;;;;;;;;5074267;28;20036;-30
2022/04/22 01:52:23;;;;;;;18.40;12.98;;;;;;;;;;5074320;28;20613;-30
2022/04/22 01:54:51;;;;;;;18.33;13.48;;;;;;;;;;5073798;28;20075;-29
2022/04/22 01:57:17;;;;;;;20.27;12.55;;;;;;;;;;5072796;28;20044;-30
2022/04/22 01:59:44;;;;;;;23.13;13.80;;;;;;;;;;5073957;28;20555;-28
2022/04/22 02:02:13;;;;;;;22.60;13.75;;;;;;;;;;5074146;28;20044;-30
2022/04/22 02:04:40;;;;;;;18.58;13.57;;;;;;;;;;5072208;28;20036;-29
2022/04/22 02:07:06;;;;;;;20.27;13.38;;;;;;;;;;5074084;28;20036;-30
2022/04/22 02:09:32;;;;;;;21.50;13.45;;;;;;;;;;5073620;28;20047;-30
2022/04/22 02:11:58;;;;;;;21.55;13.70;;;;;;;;;;5073529;28;20082;-29
2022/04/22 02:14:28;;;;;;;20.75;13.38;;;;;;;;;;5073627;28;20040;-31
2022/04/22 02:16:54;;;;;;;20.38;13.55;;;;;;;;;;5074044;28;20041;-29
2022/04/22 02:19:20;;;;;;;17.48;13.25;;;;;;;;;;5073509;28;20060;-30
2022/04/22 02:21:47;;;;;;;16.92;12.73;;;;;;;;;;5073603;28;20066;-29
2022/04/22 02:24:13;;;;;;;19.42;13.27;;;;;;;;;;5075186;28;20051;-29
2022/04/22 02:29:24;;;;;;;17.38;12.45;;;;;;;;;;5073082;28;20148;-29
2022/04/22 02:31:52;;;;;;;19.33;12.98;;;;;;;;;;5073201;28;20075;-32
2022/04/22 02:34:19;;;;;;;20.33;11.73;;;;;;;;;;5073014;28;20351;-29
2022/04/22 02:36:45;;;;;;;18.63;11.75;;;;;;;;;;5073232;28;20131;-29
2022/04/22 02:39:11;;;;;;;20.70;12.75;;;;;;;;;;5073204;28;20526;-29
2022/04/22 02:47:07;;;;;;;20.02;11.55;;;;;;;;;;5073423;28;20048;-30
2022/04/22 02:49:33;;;;;;;16.38;11.73;;;;;;;;;;5072986;28;20046;-31
2022/04/22 02:51:59;;;;;;;18.00;12.07;;;;;;;;;;5073344;28;20460;-31
2022/04/22 02:54:26;;;;;;;16.75;11.80;;;;;;;;;;5071290;28;20140;-32
2022/04/22 02:56:52;;;;;;;18.15;11.68;;;;;;;;;;5066009;28;20043;-28
2022/04/22 02:59:19;;;;;;;19.17;12.45;;;;;;;;;;5058826;28;20514;-28
2022/04/22 03:01:45;;;;;;;17.00;10.82;;;;;;;;;;5069469;28;20044;-30
2022/04/22 03:04:12;;;;;;;17.08;12.02;;;;;;;;;;5073151;28;20047;-29
2022/04/22 03:06:38;;;;;;;16.55;11.75;;;;;;;;;;5072553;28;20061;-28
2022/04/22 03:09:05;;;;;;;13.40;11.02;;;;;;;;;;5073818;28;20481;-29
2022/04/22 03:11:31;;;;;;;16.92;11.52;;;;;;;;;;5072954;28;20047;-31
2022/04/22 03:13:58;;;;;;;17.83;11.45;;;;;;;;;;5073268;28;20044;-30
2022/04/22 03:16:24;;;;;;;16.67;11.52;;;;;;;;;;5072842;28;20037;-29
2022/04/22 03:18:51;;;;;;;18.80;12.05;;;;;;;;;;5073621;28;20041;-30
2022/04/22 03:21:17;;;;;;;17.08;10.95;;;;;;;;;;5054220;28;20103;-29
2022/04/22 03:23:43;;;;;;;19.42;12.50;;;;;;;;;;5073848;28;20432;-30
2022/04/22 03:26:09;;;;;;;20.48;12.25;;;;;;;;;;5072830;28;20097;-29
2022/04/22 03:28:35;;;;;;;14.52;11.25;;;;;;;;;;5073391;28;20040;-29
2022/04/22 03:31:01;;;;;;;17.13;11.63;;;;;;;;;;5072221;28;20040;-29
2022/04/22 03:33:27;;;;;;;16.52;11.57;;;;;;;;;;5073166;28;20044;-29
2022/04/22 03:35:53;;;;;;;14.65;11.32;;;;;;;;;;5072473;28;20036;-30
2022/04/22 03:38:20;;;;;;;17.75;11.00;;;;;;;;;;5054810;28;20105;-29
2022/04/22 03:40:47;;;;;;;19.77;11.32;;;;;;;;;;5072544;28;20501;-29
2022/04/22 03:43:13;;;;;;;16.35;10.68;;;;;;;;;;5072422;28;20043;-29
2022/04/22 03:45:39;;;;;;;17.80;11.13;;;;;;;;;;5072258;28;20040;-30
2022/04/22 03:48:06;;;;;;;18.65;11.63;;;;;;;;;;5072770;28;20040;-29
2022/04/22 03:50:33;;;;;;;13.75;10.48;;;;;;;;;;5072418;28;20123;-29
2022/04/22 03:52:59;;;;;;;16.38;10.65;;;;;;;;;;5072387;28;20123;-33
2022/04/22 03:55:25;;;;;;;15.70;10.55;;;;;;;;;;5072407;28;20097;-29
2022/04/22 04:00:36;;;;;;;16.95;10.40;;;;;;;;;;5072404;28;20045;-29
2022/04/22 04:03:03;;;;;;;13.02;9.18;;;;;;;;;;5072393;28;20048;-29
2022/04/22 04:05:31;;;;;;;14.25;9.25;;;;;;;;;;5071019;28;20504;-31
2022/04/22 04:07:57;;;;;;;12.73;9.38;;;;;;;;;;5072452;28;20045;-29
2022/04/22 04:15:58;;;;;;;15.10;9.48;;;;;;;;;;5074060;28;20410;-27
2022/04/22 04:18:25;;;;;;;13.52;9.95;;;;;;;;;;5072989;28;20444;-27
2022/04/22 04:23:35;;;;;;;15.63;10.30;;;;;;;;;;5052369;28;20044;-29
2022/04/22 04:26:01;;;;;;;12.18;8.93;;;;;;;;;;5062667;28;20048;-29
2022/04/22 04:28:27;;;;;;;16.45;9.20;;;;;;;;;;5071838;28;20037;-29
2022/04/22 04:30:57;;;;;;;12.52;8.20;;;;;;;;;;5071913;28;20444;-28
2022/04/22 04:33:23;;;;;;;11.20;8.20;;;;;;;;;;5061786;28;20044;-30
2022/04/22 04:35:50;;;;;;;14.82;9.10;;;;;;;;;;5064460;28;20127;-28
2022/04/22 04:38:17;;;;;;;13.20;8.57;;;;;;;;;;5059498;28;20044;-29
2022/04/22 04:40:43;;;;;;;12.02;8.30;;;;;;;;;;5055279;28;20044;-28
2022/04/22 04:43:09;;;;;;;11.63;7.78;;;;;;;;;;5057792;28;20165;-29
2022/04/22 04:45:38;;;;;;;11.93;8.52;;;;;;;;;;5058979;28;20491;-29
2022/04/22 04:48:04;;;;;;;14.10;8.60;;;;;;;;;;5059146;28;20037;-30
2022/04/22 04:50:31;;;;;;;14.88;7.57;;;;;;;;;;5065710;28;20036;-30
2022/04/22 04:52:57;;;;;;;11.68;7.38;;;;;;;;;;5071700;28;20088;-30
2022/04/22 04:55:23;;;;;;;12.15;7.32;;;;;;;;;;5063978;28;20083;-29
2022/04/22 04:57:50;;;;;;;8.98;7.07;;;;;;;;;;5071545;28;20455;-29
2022/04/22 05:00:18;;;;;;;10.05;7.50;;;;;;;;;;5054523;28;20051;-30
2022/04/22 05:02:45;;;;;;;9.77;7.43;;;;;;;;;;5070842;28;20071;-29
2022/04/22 05:05:12;;;;;;;10.05;6.90;;;;;;;;;;5072267;28;20095;-31
2022/04/22 05:07:51;;;;;;;11.52;7.15;;;;;;;;;;5071417;28;20037;-30
2022/04/22 05:10:18;;;;;;;11.30;7.43;;;;;;;;;;5057574;28;20071;-30
2022/04/22 05:12:45;;;;;;;10.43;7.15;;;;;;;;;;5065398;28;20047;-29
2022/04/22 05:15:11;;;;;;;8.15;6.22;;;;;;;;;;5061787;28;20044;-29
2022/04/22 05:17:38;;;;;;;7.90;6.60;;;;;;;;;;5062210;28;20041;-30
2022/04/22 05:20:05;;;;;;;8.35;6.30;;;;;;;;;;5062011;28;20068;-29
2022/04/22 05:22:31;;;;;;;10.00;6.43;;;;;;;;;;5059338;28;20111;-30
2022/04/22 05:24:57;;;;;;;8.73;6.28;;;;;;;;;;5057286;28;20756;-29
2022/04/22 05:27:23;;;;;;;7.82;5.80;;;;;;;;;;5060786;28;20029;-29
2022/04/22 05:32:37;;;;;;;10.02;5.97;;;;;;;;;;5069053;28;20063;-32
2022/04/22 05:35:07;;;;;;;7.82;5.75;;;;;;;;;;5057724;28;20040;-31
2022/04/22 05:38:02;;;;;;;8.85;6.57;;;;;;;;;;5064890;28;20517;-31
2022/04/22 05:40:33;;;;;;;8.55;5.95;;;;;;;;;;5044999;28;20051;-32
2022/04/22 05:42:59;;;;;;;7.55;5.35;;;;;;;;;;5056386;28;20044;-30
2022/04/22 05:45:26;;;;;;;8.73;5.63;;;;;;;;;;5060060;28;20097;-30
2022/04/22 05:47:53;;;;;;;8.95;6.05;;;;;;;;;;5064539;28;20059;-29
2022/04/22 05:50:19;;;;;;;9.00;6.10;;;;;;;;;;5065305;28;20050;-28
2022/04/22 05:52:45;;;;;;;7.30;5.30;;;;;;;;;;5053207;28;20048;-31
2022/04/22 05:55:12;;;;;;;7.32;6.20;;;;;;;;;;5061868;28;20047;-30
2022/04/22 05:57:38;;;;;;;7.45;5.55;;;;;;;;;;5065733;28;20040;-28
2022/04/22 06:00:06;;;;;;;7.20;4.82;;;;;;;;;;5050716;28;20116;-30
2022/04/22 06:02:32;;;;;;;6.82;5.05;;;;;;;;;;5052518;28;20029;-29
2022/04/22 06:04:58;;;;;;;9.02;5.30;;;;;;;;;;5070854;28;20490;-28
2022/04/22 06:07:24;;;;;;;7.07;5.97;;;;;;;;;;5070388;28;20079;-32
2022/04/22 06:12:35;;;;;;;10.00;5.60;;;;;;;;;;5070444;28;20086;-29
2022/04/22 06:15:04;;;;;;;6.57;5.65;;;;;;;;;;5070596;28;20101;-29
2022/04/22 06:17:30;;;;;;;9.43;5.53;;;;;;;;;;5069958;28;20397;-28
2022/04/22 06:19:57;;;;;;;7.82;5.80;;;;;;;;;;5051859;28;20037;-28
2022/04/22 06:22:23;;;;;;;8.20;6.05;;;;;;;;;;5062422;28;20041;-29
2022/04/22 06:24:49;;;;;;;8.90;5.57;;;;;;;;;;5068842;28;20477;-29
2022/04/22 06:27:23;;;;;;;7.55;4.93;;;;;;;;;;5065643;28;20036;-28
2022/04/22 06:29:49;;;;;;;8.18;5.65;;;;;;;;;;5063101;28;20395;-29
2022/04/22 06:32:16;;;;;;;9.15;5.43;;;;;;;;;;5071234;28;20044;-27
2022/04/22 06:34:42;;;;;;;7.30;5.50;;;;;;;;;;5074583;28;20052;-29
2022/04/22 06:37:10;;;;;;;7.00;5.60;;;;;;;;;;5074117;28;20041;-28
2022/04/22 06:45:46;;;;;;;7.35;6.13;;;;;;;;;;5074177;28;20044;-28
2022/04/22 06:47:53;;;;;;;5.65;5.07;;;;;;;;;;5074113;28;20080;-28
2022/04/22 06:50:19;;;;;;;6.68;5.75;;;;;;;;;;5073997;28;20098;-27
2022/04/22 06:52:46;;;;;;;7.25;5.43;;;;;;;;;;5074223;28;20123;-27
2022/04/22 06:55:14;;;;;;;7.20;5.15;;;;;;;;;;5074401;28;20055;-27
2022/04/22 06:57:40;;;;;;;9.30;6.20;;;;;;;;;;5074460;28;20079;-26
2022/04/22 07:00:10;;;;;;;9.07;5.80;;;;;;;;;;5073838;28;20044;-29
2022/04/22 07:02:37;;;;;;;5.80;5.18;;;;;;;;;;5073981;28;20049;-27
2022/04/22 07:05:03;;;;;;;5.65;5.07;;;;;;;;;;5073897;28;20044;-26
2022/04/22 07:07:30;;;;;;;7.93;5.57;;;;;;;;;;5074326;28;20059;-27
2022/04/22 07:09:56;;;;;;;6.93;5.45;;;;;;;;;;5074059;28;20040;-28
2022/04/22 07:12:26;;;;;;;7.85;5.85;;;;;;;;;;5074098;28;20044;-27
2022/04/22 07:15:03;;;;;;;7.00;5.45;;;;;;;;;;5073809;28;20041;-28
2022/04/22 07:17:30;;;;;;;9.90;5.10;;;;;;;;;;5074135;28;20052;-27
2022/04/22 07:19:56;;;;;;;10.23;5.82;;;;;;;;;;5074045;28;20037;-29
2022/04/22 07:22:22;;;;;;;9.18;5.40;;;;;;;;;;5073970;28;20060;-27
2022/04/22 07:24:49;;;;;;;6.22;5.40;;;;;;;;;;5074068;28;20410;-27
2022/04/22 07:27:15;;;;;;;8.00;5.53;;;;;;;;;;5074176;28;20393;-28
2022/04/22 07:29:42;;;;;;;8.95;5.47;;;;;;;;;;5073663;28;20041;-27
2022/04/22 07:32:08;;;;;;;10.05;5.70;;;;;;;;;;5055491;28;20036;-26
2022/04/22 07:34:34;;;;;;;12.77;5.80;;;;;;;;;;5073569;28;20114;-27
2022/04/22 07:37:01;;;;;;;7.07;5.55;;;;;;;;;;5073491;28;20455;-27
2022/04/22 07:39:27;;;;;;;8.77;5.80;;;;;;;;;;5073882;28;20033;-28
2022/04/22 07:41:56;;;;;;;7.15;4.63;;;;;;;;;;5072934;28;20044;-27
2022/04/22 07:47:09;;;;;;;8.50;5.05;;;;;;;;;;5072999;28;20101;-27
2022/04/22 07:49:36;;;;;;;6.20;5.05;;;;;;;;;;5073131;28;20044;-28
2022/04/22 07:52:02;;;;;;;6.53;4.93;;;;;;;;;;5072942;28;20162;-27
2022/04/22 07:54:28;;;;;;;5.22;4.72;;;;;;;;;;5072976;28;20051;-27
2022/04/22 07:56:56;;;;;;;5.93;4.60;;;;;;;;;;5072981;28;20041;-26
2022/04/22 07:59:24;;;;;;;5.43;4.60;;;;;;;;;;5055268;28;20047;-27
2022/04/22 08:01:50;;;;;;;8.27;4.95;;;;;;;;;;5072981;28;20055;-27
2022/04/22 08:04:16;;;;;;;7.47;4.88;;;;;;;;;;5072892;28;20386;-28
2022/04/22 08:06:42;;;;;;;7.30;4.97;;;;;;;;;;5073032;28;20543;-27
2022/04/22 08:09:09;;;;;;;6.07;4.18;;;;;;;;;;5072995;28;20033;-26
2022/04/22 08:11:35;;;;;;;8.55;4.43;;;;;;;;;;5073019;28;20032;-27
2022/04/22 08:14:01;;;;;;;4.97;4.47;;;;;;;;;;5072408;28;20048;-27
2022/04/22 08:16:27;;;;;;;5.63;4.18;;;;;;;;;;5072926;28;20478;-28
2022/04/22 08:18:53;;;;;;;5.80;3.65;;;;;;;;;;5072808;28;20071;-28
2022/04/22 08:21:20;;;;;;;7.53;3.95;;;;;;;;;;5072028;28;20044;-28
2022/04/22 08:23:46;;;;;;;8.27;4.07;;;;;;;;;;5071288;28;20481;-28
2022/04/22 08:26:13;;;;;;;5.15;3.85;;;;;;;;;;5054869;28;20052;-28
2022/04/22 08:28:39;;;;;;;6.32;3.45;;;;;;;;;;5072644;28;20478;-27
2022/04/22 08:31:05;;;;;;;5.00;3.72;;;;;;;;;;5072828;28;20478;-28
2022/04/22 08:33:31;;;;;;;12.85;5.15;;;;;;;;;;5072573;28;20044;-27
2022/04/22 08:35:58;;;;;;;6.07;3.28;;;;;;;;;;5072507;28;20419;-28
2022/04/22 08:38:24;;;;;;;47.10;10.63;;;;;;;;;;5072039;28;20048;-28
2022/04/22 08:40:52;;;;;;;18.30;6.05;;;;;;;;;;5072330;28;20043;-28
2022/04/22 08:43:18;;;;;;;5.53;3.38;;;;;;;;;;5071945;28;20040;-31
2022/04/22 08:45:44;;;;;;;3.83;3.20;;;;;;;;;;5071963;28;20051;-26
2022/04/22 08:50:55;;;;;;;4.88;3.22;;;;;;;;;;5071691;28;20072;-31
2022/04/22 08:53:28;;;;;;;4.90;3.50;;;;;;;;;;5071523;28;20044;-27
2022/04/22 08:55:57;;;;;;;4.50;3.13;;;;;;;;;;5072291;28;20494;-27
2022/04/22 08:58:23;;;;;;;4.07;3.25;;;;;;;;;;5072204;28;20460;-28
2022/04/22 09:00:52;;;;;;;4.95;2.58;;;;;;;;;;5071996;28;20044;-26
2022/04/22 09:03:19;;;;;;;5.35;2.80;;;;;;;;;;5072309;28;20080;-28
2022/04/22 09:05:45;;;;;;;3.10;2.80;;;;;;;;;;5065620;28;20037;-30
2022/04/22 09:08:12;;;;;;;4.60;2.78;;;;;;;;;;5066851;28;20401;-27
2022/04/22 09:10:38;;;;;;;5.32;3.38;;;;;;;;;;5072653;28;20478;-27
2022/04/22 09:13:09;;;;;;;3.47;3.03;;;;;;;;;;5068518;28;20032;-29
2022/04/22 09:15:36;;;;;;;3.88;2.75;;;;;;;;;;5053208;28;20044;-28
2022/04/22 09:18:09;;;;;;;3.15;2.85;;;;;;;;;;5071822;28;20029;-30
2022/04/22 09:20:36;;;;;;;3.10;2.80;;;;;;;;;;5065964;28;20044;-31
2022/04/22 09:23:05;;;;;;;3.50;2.92;;;;;;;;;;5063315;28;20045;-30
2022/04/22 09:25:32;;;;;;;3.53;2.67;;;;;;;;;;5066027;28;20036;-34
2022/04/22 09:28:16;;;;;;;5.45;2.70;;;;;;;;;;5059167;28;20095;-30
2022/04/22 09:30:42;;;;;;;3.65;2.63;;;;;;;;;;5056362;28;20036;-31
2022/04/22 09:33:12;;;;;;;4.88;2.72;;;;;;;;;;5059738;28;20041;-30
2022/04/22 09:42:38;;;;;;;4.35;3.05;;;;;;;;;;5061225;28;20043;-32
2022/04/22 09:43:55;;;;;;;4.13;2.65;;;;;;;;;;5036527;28;20053;-28
2022/04/22 09:46:24;;;;;;;5.38;2.47;;;;;;;;;;5051703;28;20558;-29
2022/04/22 09:48:51;;;;;;;6.53;3.13;;;;;;;;;;5069800;28;20056;-28
2022/04/22 09:51:22;;;;;;;5.63;2.80;;;;;;;;;;5065521;28;20382;-28
2022/04/22 09:53:58;;;;;;;3.25;2.45;;;;;;;;;;5048952;28;20041;-28
2022/04/22 09:56:24;;;;;;;4.97;3.33;;;;;;;;;;5048798;28;20379;-29
2022/04/22 09:58:50;;;;;;;4.13;3.00;;;;;;;;;;5051469;28;20041;-28
2022/04/22 10:01:16;;;;;;;4.15;3.08;;;;;;;;;;5051407;28;20033;-28
2022/04/22 10:03:43;;;;;;;4.28;2.83;;;;;;;;;;5052877;28;20045;-27
2022/04/22 10:06:09;;;;;;;5.50;3.05;;;;;;;;;;5054838;28;20041;-27
2022/04/22 10:08:36;;;;;;;4.57;2.72;;;;;;;;;;5055380;28;20115;-29
2022/04/22 10:11:03;;;;;;;5.38;3.00;;;;;;;;;;5071684;28;20242;-28
2022/04/22 10:13:44;;;;;;;4.45;2.95;;;;;;;;;;5075202;28;20123;-28
2022/04/22 10:16:11;;;;;;;3.60;2.95;;;;;;;;;;5074945;28;20044;-29
2022/04/22 10:18:41;;;;;;;5.13;2.85;;;;;;;;;;5073847;28;20486;-28
2022/04/22 10:21:07;;;;;;;5.30;3.08;;;;;;;;;;5074752;28;20044;-29
2022/04/22 10:23:34;;;;;;;5.20;3.22;;;;;;;;;;5074932;28;20174;-29
2022/04/22 10:26:01;;;;;;;7.22;3.22;;;;;;;;;;5074840;28;20052;-29
2022/04/22 10:28:29;;;;;;;3.35;2.90;;;;;;;;;;5075018;28;20112;-29
2022/04/22 10:31:00;;;;;;;3.45;3.03;;;;;;;;;;5074777;28;20367;-28
2022/04/22 10:33:27;;;;;;;3.88;2.63;;;;;;;;;;5074826;28;20107;-28
2022/04/22 10:36:02;;;;;;;6.43;3.17;;;;;;;;;;5056722;28;20548;-29
2022/04/22 10:38:29;;;;;;;4.55;2.70;;;;;;;;;;5074582;28;20063;-30
2022/04/22 10:40:56;;;;;;;3.00;2.67;;;;;;;;;;5074908;28;20382;-29
2022/04/22 10:43:27;;;;;;;3.65;3.00;;;;;;;;;;5074468;28;20043;-29
2022/04/22 10:48:41;;;;;;;4.18;2.78;;;;;;;;;;5074425;28;20072;-28
2022/04/22 10:51:11;;;;;;;4.10;3.20;;;;;;;;;;5074181;28;20044;-29
2022/04/22 10:53:45;;;;;;;4.93;3.20;;;;;;;;;;5074010;28;20122;-29
2022/04/22 10:56:27;;;;;;;4.82;3.28;;;;;;;;;;5074337;28;20064;-29
2022/04/22 10:59:11;;;;;;;3.47;3.00;;;;;;;;;;5073889;28;20428;-28
2022/04/22 11:01:40;;;;;;;6.47;3.55;;;;;;;;;;5073327;28;20050;-29
2022/04/22 11:04:17;;;;;;;5.82;3.20;;;;;;;;;;5061220;28;20372;-29
2022/04/22 11:06:43;;;;;;;5.68;3.42;;;;;;;;;;5053787;28;20406;-29
2022/04/22 11:09:09;;;;;;;6.93;3.40;;;;;;;;;;5053480;28;20044;-28
2022/04/22 11:11:41;;;;;;;3.55;3.22;;;;;;;;;;5069724;28;20098;-29
2022/04/22 11:14:18;;;;;;;4.75;3.28;;;;;;;;;;5073849;28;20050;-30
2022/04/22 11:16:44;;;;;;;4.38;3.40;;;;;;;;;;5073050;28;20398;-30
2022/04/22 11:19:19;;;;;;;5.65;3.67;;;;;;;;;;5074104;28;20047;-29
2022/04/22 11:21:46;;;;;;;4.20;3.80;;;;;;;;;;5073998;28;20116;-29
2022/04/22 11:24:19;;;;;;;6.57;3.72;;;;;;;;;;5073780;28;20040;-29
2022/04/22 11:26:46;;;;;;;8.38;3.38;;;;;;;;;;5073690;28;20052;-28
2022/04/22 11:29:12;;;;;;;4.90;3.33;;;;;;;;;;5073691;28;20068;-29
2022/04/22 11:31:39;;;;;;;5.20;4.13;;;;;;;;;;5048660;28;20078;-33
2022/04/22 11:34:08;;;;;;;4.38;3.70;;;;;;;;;;5065879;28;20048;-32
2022/04/22 11:36:47;;;;;;;4.53;3.67;;;;;;;;;;5062956;28;20041;-30
2022/04/22 11:39:15;;;;;;;4.82;3.75;;;;;;;;;;5058477;28;20490;-32
2022/04/22 11:41:55;;;;;;;9.65;4.18;;;;;;;;;;5061512;28;20079;-32
2022/04/22 11:44:21;;;;;;;5.20;4.13;;;;;;;;;;5062536;28;20043;-30
2022/04/22 11:46:49;;;;;;;5.05;3.90;;;;;;;;;;5065910;28;20446;-33
2022/04/22 11:49:15;;;;;;;7.30;3.75;;;;;;;;;;5058376;28;20037;-30
2022/04/22 11:51:41;;;;;;;4.35;3.95;;;;;;;;;;5064820;28;20029;-32
2022/04/22 11:54:07;;;;;;;6.80;4.20;;;;;;;;;;5067529;28;20037;-33
2022/04/22 11:56:36;;;;;;;5.43;4.13;;;;;;;;;;5052906;28;20045;-28
2022/04/22 11:59:03;;;;;;;7.45;3.70;;;;;;;;;;5052086;28;20052;-28
2022/04/22 12:08:00;;;;;;;5.43;4.18;;;;;;;;;;5064563;28;20041;-31
2022/04/22 12:10:00;;;;;;;5.30;4.50;;;;;;;;;;5063316;28;20057;-31
2022/04/22 12:12:29;;;;;;;4.47;4.07;;;;;;;;;;5059166;28;20120;-31
2022/04/22 12:15:02;;;;;;;5.28;4.20;;;;;;;;;;5063815;28;20465;-30
2022/04/22 12:17:28;;;;;;;10.00;4.75;;;;;;;;;;5059901;28;20040;-32
2022/04/22 12:19:54;;;;;;;4.47;4.05;;;;;;;;;;5062350;28;20044;-28
2022/04/22 12:22:21;;;;;;;6.20;4.63;;;;;;;;;;5072517;28;20040;-27
2022/04/22 12:25:05;;;;;;;4.60;4.20;;;;;;;;;;5072506;28;20120;-28
2022/04/22 12:27:31;;;;;;;8.52;5.10;;;;;;;;;;5072262;28;20037;-29
2022/04/22 12:30:11;;;;;;;8.25;5.10;;;;;;;;;;5072716;28;20048;-29
2022/04/22 12:32:38;;;;;;;7.78;4.78;;;;;;;;;;5062775;28;20379;-28
2022/04/22 12:35:14;;;;;;;6.97;4.82;;;;;;;;;;5052841;28;20196;-28
2022/04/22 12:37:46;;;;;;;6.82;4.93;;;;;;;;;;5052167;28;20537;-29
2022/04/22 12:40:14;;;;;;;7.88;5.40;;;;;;;;;;5052386;28;20094;-29
2022/04/22 12:42:40;;;;;;;5.85;5.20;;;;;;;;;;5052147;28;20063;-30
2022/04/22 12:53:33;;;;;;;6.43;5.30;;;;;;;;;;5066666;28;20056;-29
2022/04/22 12:56:00;;;;;;;5.90;5.30;;;;;;;;;;5071714;28;20383;-28
2022/04/22 12:58:26;;;;;;;8.18;5.78;;;;;;;;;;5071719;28;20494;-28
2022/04/22 13:00:53;;;;;;;6.68;5.72;;;;;;;;;;5071597;28;20129;-28
2022/04/22 13:03:21;;;;;;;6.20;5.60;;;;;;;;;;5071879;28;20300;-28
2022/04/22 13:05:48;;;;;;;7.75;5.85;;;;;;;;;;5071445;28;20509;-28
2022/04/22 13:08:15;;;;;;;9.70;6.45;;;;;;;;;;5053401;28;20036;-28
2022/04/22 13:10:41;;;;;;;7.57;5.90;;;;;;;;;;5071253;28;20032;-27
2022/04/22 13:13:11;;;;;;;6.88;6.03;;;;;;;;;;5072019;28;20050;-28
2022/04/22 13:15:38;;;;;;;6.60;5.88;;;;;;;;;;5072797;28;20048;-28
2022/04/22 13:18:04;;;;;;;7.13;5.95;;;;;;;;;;5072658;28;20044;-28
2022/04/22 13:20:30;;;;;;;12.70;6.22;;;;;;;;;;5072820;28;20063;-29
2022/04/22 13:22:56;;;;;;;7.95;5.45;;;;;;;;;;5072430;28;20033;-28
2022/04/22 13:25:23;;;;;;;7.97;5.25;;;;;;;;;;5071954;28;20053;-29
2022/04/22 13:27:49;;;;;;;7.47;6.05;;;;;;;;;;5071928;28;20120;-29
2022/04/22 13:30:15;;;;;;;6.93;6.05;;;;;;;;;;5072571;28;20041;-27
2022/04/22 13:32:41;;;;;;;6.93;6.18;;;;;;;;;;5072005;28;20089;-28
2022/04/22 13:35:10;;;;;;;6.28;5.65;;;;;;;;;;5072593;28;20050;-28
2022/04/22 13:37:36;;;;;;;8.02;5.18;;;;;;;;;;5074187;28;20052;-29
2022/04/22 13:40:03;;;;;;;7.70;5.65;;;;;;;;;;5076797;28;20091;-27
2022/04/22 13:42:29;;;;;;;6.97;5.68;;;;;;;;;;5076394;28;20041;-28
2022/04/22 13:53:11;;;;;;;6.00;5.40;;;;;;;;;;5076629;28;20564;-29
2022/04/22 13:55:38;;;;;;;10.70;5.97;;;;;;;;;;5076965;28;20468;-32
2022/04/22 13:58:04;;;;;;;7.03;6.25;;;;;;;;;;5075555;28;20040;-28
2022/04/22 14:00:30;;;;;;;6.53;5.00;;;;;;;;;;5074132;28;20113;-29
2022/04/22 14:02:57;;;;;;;6.85;4.88;;;;;;;;;;5074443;28;20037;-30
2022/04/22 14:05:23;;;;;;;7.20;5.22;;;;;;;;;;5056022;28;20105;-28
2022/04/22 14:07:49;;;;;;;5.00;4.40;;;;;;;;;;5070745;28;20036;-33
2022/04/22 14:10:16;;;;;;;5.45;4.85;;;;;;;;;;5069508;28;20055;-31
2022/04/22 14:12:42;;;;;;;7.13;5.07;;;;;;;;;;5072042;28;20036;-30
2022/04/22 14:15:09;;;;;;;6.10;5.10;;;;;;;;;;5066385;28;20093;-31
2022/04/22 14:17:35;;;;;;;5.63;4.32;;;;;;;;;;5072368;28;20387;-31
2022/04/22 14:20:03;;;;;;;5.00;4.57;;;;;;;;;;5069598;28;20115;-32
2022/04/22 14:22:29;;;;;;;5.15;4.60;;;;;;;;;;5070979;28;20119;-28
2022/04/22 14:24:57;;;;;;;7.65;4.53;;;;;;;;;;5067136;28;20041;-29
2022/04/22 14:27:23;;;;;;;5.07;4.30;;;;;;;;;;5053894;28;20541;-27
2022/04/22 14:29:49;;;;;;;6.10;4.57;;;;;;;;;;5067429;28;20059;-28
2022/04/22 14:32:15;;;;;;;5.10;4.63;;;;;;;;;;5075142;28;20067;-28
2022/04/22 14:34:42;;;;;;;5.03;4.55;;;;;;;;;;5074535;28;20036;-28
2022/04/22 14:37:08;;;;;;;4.97;4.45;;;;;;;;;;5074613;28;20047;-29
2022/04/22 14:39:34;;;;;;;7.35;5.00;;;;;;;;;;5074429;28;20155;-28
2022/04/22 14:42:00;;;;;;;6.90;5.15;;;;;;;;;;5074782;28;20106;-29
2022/04/22 14:44:27;;;;;;;6.78;5.45;;;;;;;;;;5066744;28;20038;-33
2022/04/22 14:46:53;;;;;;;6.53;4.88;;;;;;;;;;5035743;28;20045;-32
2022/04/22 14:49:19;;;;;;;4.65;4.18;;;;;;;;;;5065148;28;20535;-32
2022/04/22 14:51:47;;;;;;;4.80;4.05;;;;;;;;;;5073351;28;20032;-32
2022/04/22 14:54:13;;;;;;;5.38;4.00;;;;;;;;;;5052641;28;20040;-31
2022/04/22 14:56:40;;;;;;;6.68;4.38;;;;;;;;;;5069156;28;20087;-28
2022/04/22 14:59:06;;;;;;;4.80;4.40;;;;;;;;;;5073986;28;20098;-29
2022/04/22 15:01:33;;;;;;;5.78;4.78;;;;;;;;;;5074405;28;20072;-31
2022/04/22 15:03:59;;;;;;;5.35;4.50;;;;;;;;;;5074379;28;20036;-32
2022/04/22 15:06:25;;;;;;;7.10;4.70;;;;;;;;;;5074188;28;20041;-32
2022/04/22 15:08:51;;;;;;;5.03;4.60;;;;;;;;;;5073695;28;20037;-29
2022/04/22 15:11:18;;;;;;;7.60;4.30;;;;;;;;;;5070287;28;20032;-32
2022/04/22 15:13:44;;;;;;;6.25;4.47;;;;;;;;;;5070605;28;20047;-28
2022/04/22 15:16:10;;;;;;;7.55;4.85;;;;;;;;;;5070217;28;20379;-31
2022/04/22 15:24:17;;;;;;;4.57;4.18;;;;;;;;;;5062387;28;20040;-28
2022/04/22 15:26:44;;;;;;;4.95;3.90;;;;;;;;;;5055095;28;20457;-31
2022/04/22 15:29:19;;;;;;;6.03;4.63;;;;;;;;;;5044057;28;20413;-32
2022/04/22 15:31:48;;;;;;;6.72;4.93;;;;;;;;;;5064819;28;20037;-31
2022/04/22 15:34:15;;;;;;;4.90;4.28;;;;;;;;;;5048970;28;20040;-31
2022/04/22 15:36:42;;;;;;;7.28;4.32;;;;;;;;;;5069001;28;20032;-30
2022/04/22 15:39:09;;;;;;;5.13;3.90;;;;;;;;;;5066300;28;20046;-28
2022/04/22 15:41:35;;;;;;;6.10;4.35;;;;;;;;;;5070620;28;20036;-29
2022/04/22 15:44:04;;;;;;;6.07;4.20;;;;;;;;;;5070105;28;20039;-31
2022/04/22 15:46:30;;;;;;;4.43;4.03;;;;;;;;;;5072343;28;20040;-27
2022/04/22 15:48:56;;;;;;;7.00;3.97;;;;;;;;;;5073629;28;20119;-29
2022/04/22 15:51:24;;;;;;;5.10;4.00;;;;;;;;;;5062577;28;20032;-29
2022/04/22 15:53:51;;;;;;;5.22;4.30;;;;;;;;;;5059138;28;20391;-30
2022/04/22 15:56:18;;;;;;;7.22;4.75;;;;;;;;;;5067206;28;20037;-31